createdAt,value
2019-01-20T06:27:18.764Z,4.00
2019-01-20T06:31:18.719Z,4.00
2019-01-20T08:25:41.954Z,3176.00
2019-01-20T08:26:41.941Z,3188.00
2019-01-20T08:27:41.935Z,3272.00
2019-01-20T08:28:41.940Z,3348.00
2019-01-20T08:29:41.937Z,3412.00
2019-01-20T08:30:41.942Z,3492.00
2019-01-20T08:31:41.888Z,3564.00
2019-01-20T08:32:41.886Z,3704.00
2019-01-20T08:33:41.888Z,3848.00
2019-01-20T08:34:41.892Z,3936.00
2019-01-20T08:35:41.895Z,4152.00
2019-01-20T08:36:41.831Z,4468.00
2019-01-20T08:37:41.822Z,4632.00
2019-01-20T08:38:41.810Z,4824.00
2019-01-20T08:39:41.797Z,4976.00
2019-01-20T08:40:41.787Z,5112.00
2019-01-20T08:41:41.774Z,5200.00
2019-01-20T08:42:41.769Z,5224.00
2019-01-20T08:43:41.751Z,5304.00
2019-01-20T08:44:41.741Z,5392.00
2019-01-20T08:45:41.736Z,5456.00
2019-01-20T08:46:41.722Z,5476.00
2019-01-20T08:47:41.711Z,5288.00
2019-01-20T08:48:41.700Z,5300.00
2019-01-20T08:49:41.685Z,5604.00
2019-01-20T08:50:41.675Z,5732.00
2019-01-20T08:51:41.664Z,5772.00
2019-01-20T08:52:41.659Z,5936.00
2019-01-20T08:53:41.640Z,6028.00
2019-01-20T08:54:41.630Z,6136.00
2019-01-20T08:55:41.617Z,6204.00
2019-01-20T08:56:41.611Z,6280.00
2019-01-20T08:57:41.597Z,6336.00
2019-01-20T08:58:41.582Z,6364.00
2019-01-20T08:59:41.572Z,6360.00
2019-01-20T09:00:41.561Z,6464.00
2019-01-20T09:01:41.550Z,6540.00
2019-01-20T09:02:41.541Z,6544.00
2019-01-20T09:03:41.528Z,6568.00
2019-01-20T09:04:41.515Z,6632.00
2019-01-20T09:05:41.502Z,6724.00
2019-01-20T09:06:41.550Z,6816.00
2019-01-20T09:07:41.480Z,6896.00
2019-01-20T09:08:41.468Z,6920.00
2019-01-20T09:09:41.458Z,7076.00
2019-01-20T09:10:41.446Z,7060.00
2019-01-20T09:11:41.437Z,7220.00
2019-01-20T09:12:41.425Z,7208.00
2019-01-20T09:13:41.413Z,7200.00
2019-01-20T09:14:41.406Z,7352.00
2019-01-20T09:15:41.389Z,7380.00
2019-01-20T09:16:41.380Z,7424.00
2019-01-20T09:17:41.366Z,7464.00
2019-01-20T09:18:41.360Z,7532.00
2019-01-20T09:19:41.352Z,7576.00
2019-01-20T09:20:41.337Z,7652.00
2019-01-20T09:21:41.322Z,7764.00
2019-01-20T09:22:41.314Z,7784.00
2019-01-20T09:23:41.302Z,7776.00
2019-01-20T09:24:41.288Z,7904.00
2019-01-20T09:25:41.278Z,7892.00
2019-01-20T09:26:41.272Z,8032.00
2019-01-20T09:27:41.255Z,8012.00
2019-01-20T09:28:41.246Z,8052.00
2019-01-20T09:29:41.233Z,8084.00
2019-01-20T09:30:41.221Z,8104.00
2019-01-20T09:31:41.215Z,8160.00
2019-01-20T09:32:41.219Z,8256.00
2019-01-20T09:33:41.196Z,8232.00
2019-01-20T09:34:41.176Z,8308.00
2019-01-20T09:35:41.163Z,8332.00
2019-01-20T09:36:41.152Z,8396.00
2019-01-20T09:37:41.141Z,8452.00
2019-01-20T09:38:41.136Z,8584.00
2019-01-20T09:39:41.121Z,8508.00
2019-01-20T09:40:41.107Z,8560.00
2019-01-20T09:41:41.100Z,8536.00
2019-01-20T09:42:41.085Z,8568.00
2019-01-20T09:43:47.095Z,8588.00
2019-01-20T09:45:05.544Z,8612.00
2019-01-20T09:46:05.537Z,8660.00
2019-01-20T09:47:05.519Z,8788.00
2019-01-20T09:48:05.510Z,8860.00
2019-01-20T09:49:05.497Z,8956.00
2019-01-20T09:50:05.495Z,8976.00
2019-01-20T09:51:05.477Z,9144.00
2019-01-20T09:52:05.463Z,9260.00
2019-01-20T09:53:05.451Z,9464.00
2019-01-20T09:54:05.448Z,9632.00
2019-01-20T09:55:05.435Z,9944.00
2019-01-20T09:56:05.418Z,10140.00
2019-01-20T09:57:05.407Z,10432.00
2019-01-20T09:58:05.394Z,10956.00
2019-01-20T09:59:05.421Z,11224.00
2019-01-20T10:00:05.372Z,11584.00
2019-01-20T10:01:05.360Z,11676.00
2019-01-20T10:02:05.349Z,11608.00
2019-01-20T10:03:05.337Z,11428.00
2019-01-20T10:04:05.327Z,11372.00
2019-01-20T10:05:05.316Z,11372.00
2019-01-20T10:06:05.305Z,11316.00
2019-01-20T10:07:05.295Z,10868.00
2019-01-20T10:08:05.285Z,11056.00
2019-01-20T10:09:05.278Z,10920.00
2019-01-20T10:10:05.262Z,11004.00
2019-01-20T10:11:05.249Z,10948.00
2019-01-20T10:12:05.238Z,10768.00
2019-01-20T10:13:05.233Z,10720.00
2019-01-20T10:14:05.217Z,10740.00
2019-01-20T10:15:05.204Z,10012.00
2019-01-20T10:16:05.197Z,9624.00
2019-01-20T10:17:05.189Z,10592.00
2019-01-20T10:18:05.179Z,10936.00
2019-01-20T10:19:05.166Z,10764.00
2019-01-20T10:20:05.149Z,10632.00
2019-01-20T10:21:05.161Z,10336.00
2019-01-20T10:22:05.128Z,11316.00
2019-01-20T10:23:05.124Z,12868.00
2019-01-20T10:24:05.106Z,13524.00
2019-01-20T10:25:05.095Z,13708.00
2019-01-20T10:26:05.086Z,13936.00
2019-01-20T10:27:05.070Z,13932.00
2019-01-20T10:28:05.063Z,13764.00
2019-01-20T10:29:05.051Z,13764.00
2019-01-20T10:30:05.037Z,13736.00
2019-01-20T10:31:06.072Z,13768.00
2019-01-20T10:32:05.013Z,13828.00
2019-01-20T10:33:05.004Z,13728.00
2019-01-20T10:34:04.988Z,13792.00
2019-01-20T10:35:04.980Z,14352.00
2019-01-20T10:36:04.970Z,14920.00
2019-01-20T10:37:04.952Z,14568.00
2019-01-20T10:38:04.943Z,14844.00
2019-01-20T10:39:04.931Z,14432.00
2019-01-20T10:40:04.919Z,14420.00
2019-01-20T10:41:04.907Z,14820.00
2019-01-20T10:42:04.895Z,15220.00
2019-01-20T10:43:04.885Z,15712.00
2019-01-20T10:44:04.876Z,16704.00
2019-01-20T10:45:04.862Z,17408.00
2019-01-20T10:46:04.850Z,17408.00
2019-01-20T10:47:04.841Z,17536.00
2019-01-20T10:48:04.827Z,17920.00
2019-01-20T10:49:05.378Z,17856.00
2019-01-20T10:50:04.806Z,18208.00
2019-01-20T10:51:04.796Z,18112.00
2019-01-20T10:52:04.784Z,18048.00
2019-01-20T10:53:04.773Z,17888.00
2019-01-20T10:54:04.764Z,17696.00
2019-01-20T10:55:04.770Z,17376.00
2019-01-20T10:56:04.744Z,17280.00
2019-01-20T10:57:04.729Z,17216.00
2019-01-20T10:58:04.716Z,17024.00
2019-01-20T10:59:04.704Z,16672.00
2019-01-20T11:00:04.695Z,16544.00
2019-01-20T11:01:04.686Z,16288.00
2019-01-20T11:02:04.673Z,16092.00
2019-01-20T11:03:04.660Z,16220.00
2019-01-20T11:04:04.653Z,16800.00
2019-01-20T11:05:04.640Z,17664.00
2019-01-20T11:06:04.626Z,18176.00
2019-01-20T11:07:04.618Z,18432.00
2019-01-20T11:08:04.602Z,18848.00
2019-01-20T11:09:04.596Z,19520.00
2019-01-20T11:10:04.581Z,20000.00
2019-01-20T11:11:04.576Z,21312.00
2019-01-20T11:12:04.558Z,22208.00
2019-01-20T11:13:04.552Z,22336.00
2019-01-20T11:14:09.403Z,22720.00
2019-01-20T11:15:04.530Z,22432.00
2019-01-20T11:16:04.513Z,21888.00
2019-01-20T11:17:04.509Z,21728.00
2019-01-20T11:18:04.491Z,21216.00
2019-01-20T11:19:04.485Z,21376.00
2019-01-20T11:20:04.469Z,22400.00
2019-01-20T11:21:04.462Z,22144.00
2019-01-20T11:22:04.448Z,21600.00
2019-01-20T11:23:04.434Z,20960.00
2019-01-20T11:24:04.422Z,19744.00
2019-01-20T11:25:04.422Z,18976.00
2019-01-20T11:26:04.399Z,18816.00
2019-01-20T11:27:04.393Z,18144.00
2019-01-20T11:28:04.378Z,16688.00
2019-01-20T11:29:04.365Z,15956.00
2019-01-20T11:30:04.357Z,15584.00
2019-01-20T11:31:04.350Z,15476.00
2019-01-20T11:32:04.333Z,14684.00
2019-01-20T11:33:04.323Z,14040.00
2019-01-20T11:34:04.317Z,13372.00
2019-01-20T11:35:04.299Z,12852.00
2019-01-20T11:36:04.291Z,12572.00
2019-01-20T11:37:04.276Z,12592.00
2019-01-20T11:38:04.267Z,12628.00
2019-01-20T11:39:04.266Z,12208.00
2019-01-20T11:40:04.242Z,12208.00
2019-01-20T11:41:04.233Z,12180.00
2019-01-20T11:42:04.221Z,11992.00
2019-01-20T11:43:04.213Z,12008.00
2019-01-20T11:44:04.197Z,11916.00
2019-01-20T11:45:04.186Z,11696.00
2019-01-20T11:46:04.186Z,11144.00
2019-01-20T11:47:04.164Z,11332.00
2019-01-20T11:48:04.151Z,11588.00
2019-01-20T11:49:04.138Z,11588.00
2019-01-20T11:50:04.132Z,11600.00
2019-01-20T11:51:04.117Z,11428.00
2019-01-20T11:52:04.104Z,11224.00
2019-01-20T11:53:04.096Z,11228.00
2019-01-20T11:54:04.089Z,10968.00
2019-01-20T11:55:04.071Z,10904.00
2019-01-20T11:56:04.059Z,10876.00
2019-01-20T11:57:04.054Z,10916.00
2019-01-20T11:58:04.036Z,10864.00
2019-01-20T11:59:04.025Z,10724.00
2019-01-20T12:00:04.013Z,10532.00
2019-01-20T12:01:04.010Z,10548.00
2019-01-20T12:02:04.005Z,10340.00
2019-01-20T12:03:03.977Z,10108.00
2019-01-20T12:04:03.966Z,9856.00
2019-01-20T12:05:03.961Z,9940.00
2019-01-20T12:06:03.943Z,9972.00
2019-01-20T12:07:03.936Z,9708.00
2019-01-20T12:08:03.920Z,8476.00
2019-01-20T12:09:03.911Z,7208.00
2019-01-20T12:10:03.902Z,7032.00
2019-01-20T12:11:03.891Z,6760.00
2019-01-20T12:12:03.875Z,6668.00
2019-01-20T12:13:03.867Z,6920.00
2019-01-20T12:14:03.858Z,8224.00
2019-01-20T12:15:03.841Z,8988.00
2019-01-20T12:16:03.830Z,8528.00
2019-01-20T12:17:03.821Z,8020.00
2019-01-20T12:18:03.808Z,7744.00
2019-01-20T12:19:03.803Z,7560.00
2019-01-20T12:20:03.788Z,7232.00
2019-01-20T12:21:03.838Z,7016.00
2019-01-20T12:22:03.761Z,7320.00
2019-01-20T12:23:03.753Z,8140.00
2019-01-20T12:24:03.739Z,9132.00
2019-01-20T12:25:03.753Z,9576.00
2019-01-20T12:26:03.716Z,10040.00
2019-01-20T12:27:03.705Z,9460.00
2019-01-20T12:28:03.698Z,7200.00
2019-01-20T12:29:03.691Z,6172.00
2019-01-20T12:30:03.678Z,7192.00
2019-01-20T12:31:03.660Z,9744.00
2019-01-20T12:32:03.654Z,10808.00
2019-01-20T12:33:03.640Z,10804.00
2019-01-20T12:34:03.629Z,11044.00
2019-01-20T12:35:03.616Z,11228.00
2019-01-20T12:36:03.605Z,11128.00
2019-01-20T12:37:03.595Z,10940.00
2019-01-20T12:38:03.583Z,11068.00
2019-01-20T12:39:03.577Z,11168.00
2019-01-20T12:40:03.567Z,10904.00
2019-01-20T12:41:03.548Z,10732.00
2019-01-20T12:42:03.546Z,10436.00
2019-01-20T12:43:03.532Z,10020.00
2019-01-20T12:44:03.515Z,9720.00
2019-01-20T12:45:03.503Z,10000.00
2019-01-20T12:46:03.494Z,10440.00
2019-01-20T12:47:03.483Z,10472.00
2019-01-20T12:48:03.471Z,10428.00
2019-01-20T12:49:03.465Z,10312.00
2019-01-20T12:50:03.456Z,10180.00
2019-01-20T12:51:03.437Z,10168.00
2019-01-20T12:52:03.424Z,9924.00
2019-01-20T12:53:03.414Z,9792.00
2019-01-20T12:54:03.407Z,9916.00
2019-01-20T12:55:03.393Z,10284.00
2019-01-20T12:56:03.382Z,10528.00
2019-01-20T12:57:03.383Z,10364.00
2019-01-20T12:58:03.362Z,10120.00
2019-01-20T12:59:03.347Z,10032.00
2019-01-20T13:00:03.334Z,10152.00
2019-01-20T13:01:03.323Z,9892.00
2019-01-20T13:02:03.312Z,9652.00
2019-01-20T13:03:03.305Z,9460.00
2019-01-20T13:04:03.292Z,9184.00
2019-01-20T13:05:03.282Z,8928.00
2019-01-20T13:06:03.272Z,8596.00
2019-01-20T13:07:03.254Z,8600.00
2019-01-20T13:08:03.243Z,8676.00
2019-01-20T13:09:03.236Z,8216.00
2019-01-20T13:10:03.224Z,7788.00
2019-01-20T13:11:03.209Z,7976.00
2019-01-20T13:12:03.199Z,7836.00
2019-01-20T13:13:03.188Z,7612.00
2019-01-20T13:14:03.180Z,7312.00
2019-01-20T13:15:03.169Z,7180.00
2019-01-20T13:16:03.154Z,7020.00
2019-01-20T13:17:03.146Z,6880.00
2019-01-20T13:18:03.132Z,6744.00
2019-01-20T13:19:03.122Z,6584.00
2019-01-20T13:20:03.111Z,6444.00
2019-01-20T13:21:03.102Z,6380.00
2019-01-20T13:22:03.094Z,6200.00
2019-01-20T13:23:03.076Z,6016.00
2019-01-20T13:24:03.064Z,6056.00
2019-01-20T13:25:03.062Z,6152.00
2019-01-20T13:26:03.042Z,6080.00
2019-01-20T13:27:03.039Z,5892.00
2019-01-20T13:28:03.020Z,5788.00
2019-01-20T13:29:03.009Z,5612.00
2019-01-20T13:30:02.997Z,5408.00
2019-01-20T13:31:02.991Z,5308.00
2019-01-20T13:32:02.975Z,5216.00
2019-01-20T13:33:02.963Z,5132.00
2019-01-20T13:34:02.955Z,5164.00
2019-01-20T13:35:02.952Z,4992.00
2019-01-20T13:36:07.131Z,4708.00
2019-01-20T13:37:02.962Z,4448.00
2019-01-20T13:38:02.908Z,4248.00
2019-01-20T13:39:02.906Z,4072.00
2019-01-20T13:40:02.908Z,3840.00
2019-01-20T13:41:02.914Z,3492.00
2019-01-20T13:42:02.918Z,3424.00
2019-01-20T13:43:02.858Z,3360.00
2019-01-20T13:44:02.840Z,3320.00
2019-01-20T13:45:02.830Z,3292.00
2019-01-20T13:46:02.816Z,3216.00
2019-01-20T13:47:02.806Z,3136.00
2019-01-20T13:48:02.797Z,3180.00
2019-01-20T13:49:02.782Z,3160.00
2019-01-20T13:50:02.770Z,3092.00
2019-01-20T13:51:02.759Z,3060.00
2019-01-20T13:52:02.749Z,3076.00
2019-01-20T13:53:02.735Z,2932.00
2019-01-20T13:54:02.723Z,2720.00
2019-01-20T13:55:02.713Z,2652.00
2019-01-20T13:56:02.699Z,2624.00
2019-01-20T13:57:02.695Z,2584.00
2019-01-20T13:58:02.676Z,2512.00
2019-01-20T13:59:02.666Z,2472.00
2019-01-20T14:00:02.660Z,2496.00
2019-01-20T14:01:02.642Z,2540.00
2019-01-20T14:02:02.630Z,2568.00
2019-01-20T14:03:02.619Z,2564.00
2019-01-20T14:04:02.608Z,2544.00
2019-01-20T14:05:02.605Z,2528.00
2019-01-20T14:06:02.585Z,2492.00
2019-01-20T14:07:02.574Z,2412.00
2019-01-20T14:08:02.565Z,2380.00
2019-01-20T14:09:02.552Z,2400.00
2019-01-20T14:10:02.539Z,2368.00
2019-01-20T14:11:02.529Z,2316.00
2019-01-20T14:12:02.517Z,2252.00
2019-01-20T14:13:02.510Z,2184.00
2019-01-20T14:14:02.499Z,2104.00
2019-01-20T14:15:02.488Z,2048.00
2019-01-20T14:16:02.487Z,2008.00
2019-01-20T14:17:02.468Z,1988.00
2019-01-20T14:18:02.467Z,1996.00
2019-01-20T14:19:02.440Z,2004.00
2019-01-20T14:20:02.431Z,2016.00
2019-01-20T14:21:02.417Z,1976.00
2019-01-20T14:22:02.406Z,1908.00
2019-01-20T14:23:02.399Z,1836.00
2019-01-20T14:24:02.390Z,1784.00
2019-01-20T14:25:02.374Z,1720.00
2019-01-20T14:26:02.362Z,1664.00
2019-01-20T14:27:02.353Z,1612.00
2019-01-20T14:28:02.343Z,1576.00
2019-01-20T14:29:02.330Z,1540.00
2019-01-20T14:30:02.322Z,1524.00
2019-01-20T14:31:02.309Z,1520.00
2019-01-20T14:32:02.298Z,1504.00
2019-01-20T14:33:02.294Z,1508.00
2019-01-20T14:34:02.280Z,1488.00
2019-01-20T14:35:02.265Z,1468.00
2019-01-20T14:36:02.253Z,1456.00
2019-01-20T14:37:02.242Z,1432.00
2019-01-20T14:38:02.239Z,1408.00
2019-01-20T14:39:02.225Z,1372.00
2019-01-20T14:40:02.210Z,1336.00
2019-01-20T14:41:02.201Z,1316.00
2019-01-20T14:42:02.191Z,1300.00
2019-01-20T14:43:02.175Z,1252.00
2019-01-20T14:44:02.171Z,1204.00
2019-01-20T14:45:02.159Z,1164.00
2019-01-20T14:46:02.142Z,1124.00
2019-01-20T14:47:02.129Z,1096.00
2019-01-20T14:48:02.125Z,1072.00
2019-01-20T14:49:02.107Z,1044.00
2019-01-20T14:50:02.096Z,1016.00
2019-01-20T14:51:02.087Z,984.00
2019-01-20T14:52:02.072Z,952.00
2019-01-20T14:53:02.062Z,920.00
2019-01-20T14:54:02.050Z,892.00
2019-01-20T14:55:02.041Z,880.00
2019-01-20T14:56:02.030Z,852.00
2019-01-20T14:57:02.016Z,808.00
2019-01-20T14:58:02.006Z,780.00
2019-01-20T14:59:01.993Z,744.00
2019-01-20T15:00:01.983Z,688.00
2019-01-20T15:01:01.971Z,656.00
2019-01-20T15:02:01.962Z,632.00
2019-01-20T15:03:01.958Z,612.00
2019-01-20T15:04:01.937Z,592.00
2019-01-20T15:05:01.926Z,564.00
2019-01-20T15:06:01.915Z,532.00
2019-01-20T15:07:01.903Z,504.00
2019-01-20T15:08:01.896Z,472.00
2019-01-20T15:09:01.879Z,452.00
2019-01-20T15:10:01.868Z,424.00
2019-01-20T15:11:01.855Z,408.00
2019-01-20T15:12:01.851Z,396.00
2019-01-20T15:13:01.841Z,384.00
2019-01-20T15:14:01.824Z,372.00
2019-01-20T15:15:08.665Z,344.00
2019-01-20T15:16:26.284Z,316.00
2019-01-20T15:17:26.269Z,304.00
2019-01-20T15:18:26.258Z,300.00
2019-01-20T15:19:26.253Z,292.00
2019-01-20T15:20:26.241Z,272.00
2019-01-20T15:21:26.231Z,256.00
2019-01-20T15:22:26.214Z,240.00
2019-01-20T15:23:26.203Z,228.00
2019-01-20T15:24:31.105Z,212.00
2019-01-20T15:25:26.182Z,204.00
2019-01-20T15:26:26.175Z,188.00
2019-01-20T15:27:26.164Z,172.00
2019-01-20T15:28:26.145Z,156.00
2019-01-20T15:29:26.134Z,148.00
2019-01-20T15:30:26.124Z,144.00
2019-01-20T15:31:26.110Z,132.00
2019-01-20T15:32:26.100Z,116.00
2019-01-20T15:33:26.090Z,100.00
2019-01-20T15:34:26.077Z,88.00
2019-01-20T15:35:26.067Z,84.00
2019-01-20T15:36:26.054Z,76.00
2019-01-20T15:37:26.044Z,68.00
2019-01-20T15:38:26.033Z,56.00
2019-01-20T15:39:26.021Z,52.00
2019-01-20T15:40:26.012Z,48.00
2019-01-20T15:41:25.999Z,44.00
2019-01-20T15:42:25.990Z,36.00
2019-01-20T15:43:25.977Z,32.00
2019-01-20T15:44:25.967Z,28.00
2019-01-20T15:45:25.955Z,24.00
2019-01-20T15:46:25.944Z,24.00
2019-01-20T15:47:25.935Z,16.00
2019-01-20T15:48:25.923Z,16.00
2019-01-20T15:49:25.912Z,12.00
2019-01-20T15:50:25.899Z,12.00
2019-01-20T15:51:25.897Z,12.00
2019-01-20T15:52:25.877Z,12.00
2019-01-20T15:53:25.867Z,8.00
2019-01-20T15:54:25.855Z,8.00
2019-01-20T15:55:25.845Z,8.00
2019-01-20T15:56:25.834Z,8.00
2019-01-20T15:57:25.824Z,8.00
2019-01-20T15:58:26.790Z,4.00
2019-01-20T15:59:25.801Z,4.00
2019-01-20T16:00:25.789Z,4.00
2019-01-20T16:01:25.780Z,4.00
2019-01-20T16:02:25.772Z,4.00
2019-01-20T16:03:25.756Z,4.00
2019-01-20T16:06:25.730Z,4.00
2019-01-20T16:07:25.714Z,4.00
2019-01-20T16:08:25.701Z,4.00
2019-01-20T16:09:25.693Z,4.00
2019-01-20T16:10:25.680Z,4.00
2019-01-20T16:11:25.672Z,4.00
2019-01-20T16:12:25.661Z,4.00
2019-01-20T16:13:25.651Z,4.00
2019-01-20T16:14:25.642Z,4.00
2019-01-20T16:15:25.624Z,4.00
2019-01-20T16:16:25.616Z,4.00
2019-01-20T16:17:25.602Z,4.00
2019-01-20T16:18:25.590Z,4.00
2019-01-20T16:19:25.578Z,4.00
2019-01-20T16:20:25.570Z,4.00
2019-01-20T16:21:25.556Z,4.00
2019-01-20T16:22:25.545Z,4.00
2019-01-20T16:23:25.535Z,4.00
2019-01-20T16:24:25.526Z,4.00
2019-01-20T16:25:25.514Z,4.00
2019-01-20T16:26:25.502Z,4.00
2019-01-20T16:27:25.490Z,4.00
2019-01-20T16:28:25.485Z,4.00
2019-01-20T16:29:25.471Z,4.00
2019-01-20T16:30:25.455Z,4.00
2019-01-20T16:31:25.451Z,4.00
2019-01-20T16:32:25.433Z,4.00
2019-01-20T16:33:25.423Z,4.00
2019-01-20T16:34:25.426Z,4.00
2019-01-20T16:35:25.400Z,4.00
2019-01-20T16:36:25.392Z,4.00
2019-01-20T16:37:25.377Z,4.00
2019-01-20T16:38:25.370Z,4.00
2019-01-20T16:39:25.767Z,4.00
2019-01-20T16:40:25.344Z,4.00
2019-01-20T16:41:25.332Z,4.00
2019-01-20T16:42:25.343Z,4.00
2019-01-20T16:43:25.310Z,4.00
2019-01-20T16:45:31.934Z,4.00
2019-01-20T16:46:26.303Z,4.00
2019-01-20T16:50:25.237Z,4.00
2019-01-20T16:55:25.174Z,0.00
2019-01-20T17:04:25.070Z,4.00
2019-01-20T17:11:24.996Z,4.00
2019-01-20T17:15:24.947Z,0.00
2019-01-20T17:17:24.926Z,0.00
2019-01-20T17:18:24.914Z,4.00
2019-01-20T17:19:24.903Z,0.00
2019-01-20T17:20:24.891Z,4.00
2019-01-20T17:21:24.884Z,4.00
2019-01-20T17:23:24.857Z,4.00
2019-01-20T17:24:24.853Z,4.00
2019-01-20T17:25:24.837Z,4.00
2019-01-20T17:26:24.827Z,4.00
2019-01-20T17:27:24.820Z,4.00
2019-01-20T17:28:24.809Z,4.00
2019-01-20T17:29:24.792Z,4.00
2019-01-20T17:30:24.784Z,4.00
2019-01-20T17:31:24.777Z,4.00
2019-01-20T17:32:24.764Z,4.00
2019-01-20T17:33:24.750Z,4.00
2019-01-20T17:34:24.737Z,4.00
2019-01-20T17:35:24.729Z,4.00
2019-01-20T17:36:24.715Z,4.00
2019-01-20T17:37:24.705Z,4.00
2019-01-20T17:38:24.694Z,4.00
2019-01-20T17:39:24.684Z,4.00
2019-01-20T17:40:24.676Z,4.00
2019-01-20T17:41:24.669Z,4.00
2019-01-20T17:42:24.650Z,4.00
2019-01-20T17:43:24.640Z,4.00
2019-01-20T17:44:24.631Z,4.00
2019-01-20T17:45:24.620Z,4.00
2019-01-20T17:46:24.609Z,4.00
2019-01-20T17:47:24.597Z,4.00
2019-01-20T17:50:24.564Z,4.00
2019-01-20T17:51:24.554Z,4.00
2019-01-20T17:52:24.550Z,4.00
2019-01-20T17:53:24.531Z,4.00
2019-01-20T17:54:24.523Z,4.00
2019-01-20T17:55:24.519Z,4.00
2019-01-20T18:07:24.378Z,0.00
2019-01-20T18:08:24.371Z,4.00
2019-01-20T18:10:24.345Z,4.00
2019-01-20T18:12:24.325Z,4.00
2019-01-20T18:13:24.314Z,4.00
2019-01-20T18:14:24.301Z,4.00
2019-01-20T18:15:24.293Z,4.00
2019-01-20T18:16:24.279Z,4.00
2019-01-20T18:17:24.276Z,4.00
2019-01-20T18:18:24.262Z,4.00
2019-01-20T18:19:24.256Z,4.00
2019-01-20T18:20:24.238Z,4.00
2019-01-20T18:21:24.229Z,4.00
2019-01-20T18:32:24.106Z,4.00
2019-01-20T18:42:23.998Z,4.00
2019-01-20T18:43:23.985Z,4.00
2019-01-20T18:44:23.984Z,4.00
2019-01-20T18:45:23.987Z,4.00
2019-01-20T18:46:24.000Z,4.00
2019-01-20T18:49:23.940Z,4.00
2019-01-20T18:50:23.946Z,4.00
2019-01-20T18:53:23.875Z,4.00
2019-01-20T18:55:23.857Z,4.00
2019-01-20T18:56:23.842Z,4.00
2019-01-20T18:57:23.832Z,4.00
2019-01-20T18:58:23.826Z,4.00
2019-01-20T18:59:23.810Z,4.00
2019-01-20T19:00:23.803Z,4.00
2019-01-20T19:01:23.796Z,4.00
2019-01-20T19:02:23.776Z,4.00
2019-01-20T19:03:23.765Z,4.00
2019-01-20T19:04:23.759Z,4.00
2019-01-20T19:05:23.743Z,4.00
2019-01-20T19:06:23.732Z,4.00
2019-01-20T19:07:23.721Z,4.00
2019-01-20T19:08:23.710Z,4.00
2019-01-20T19:09:23.698Z,4.00
2019-01-20T19:10:23.687Z,4.00
2019-01-20T19:11:23.678Z,4.00
2019-01-20T19:12:23.670Z,4.00
2019-01-20T19:13:23.657Z,4.00
2019-01-20T19:14:23.645Z,4.00
2019-01-20T19:15:23.639Z,4.00
2019-01-20T19:16:23.622Z,4.00
2019-01-20T19:17:23.611Z,4.00
2019-01-20T19:18:23.599Z,4.00
2019-01-20T19:19:23.589Z,4.00
2019-01-20T19:20:23.586Z,4.00
2019-01-20T19:21:23.566Z,4.00
2019-01-20T19:22:23.555Z,4.00
2019-01-20T19:23:23.546Z,4.00
2019-01-20T19:28:23.488Z,4.00
2019-01-20T19:29:23.481Z,4.00
2019-01-20T19:30:23.471Z,4.00
2019-01-20T19:31:23.455Z,4.00
2019-01-20T19:32:23.443Z,4.00
2019-01-20T19:33:23.434Z,4.00
2019-01-20T19:34:23.424Z,4.00
2019-01-20T19:35:23.408Z,4.00
2019-01-20T19:36:23.398Z,4.00
2019-01-20T19:37:23.390Z,4.00
2019-01-20T19:38:23.381Z,4.00
2019-01-20T19:39:23.370Z,4.00
2019-01-20T19:40:23.353Z,4.00
2019-01-20T19:41:23.341Z,4.00
2019-01-20T19:42:23.330Z,4.00
2019-01-20T19:43:23.318Z,4.00
2019-01-20T19:44:23.308Z,4.00
2019-01-20T19:45:23.302Z,4.00
2019-01-20T19:46:23.286Z,4.00
2019-01-20T19:47:23.275Z,4.00
2019-01-20T19:48:23.265Z,4.00
2019-01-20T19:49:23.253Z,4.00
2019-01-20T19:50:23.249Z,4.00
2019-01-20T19:51:23.235Z,4.00
2019-01-20T19:52:23.220Z,4.00
2019-01-20T19:53:23.211Z,4.00
2019-01-20T19:54:23.200Z,4.00
2019-01-20T19:55:24.177Z,4.00
2019-01-20T19:56:23.173Z,4.00
2019-01-20T19:57:23.162Z,4.00
2019-01-20T19:58:23.154Z,4.00
2019-01-20T19:59:23.146Z,4.00
2019-01-20T20:00:23.130Z,4.00
2019-01-20T20:01:23.125Z,4.00
2019-01-20T20:03:23.096Z,4.00
2019-01-20T20:04:23.083Z,4.00
2019-01-20T20:05:23.072Z,4.00
2019-01-20T20:06:23.063Z,4.00
2019-01-20T20:08:23.041Z,4.00
2019-01-20T20:11:23.035Z,4.00
2019-01-20T20:17:22.942Z,4.00
2019-01-20T23:00:21.127Z,4.00
